sensor_id;sensor_type;location;lat;lon;timestamp;P1;durP1;ratioP1;P2;durP2;ratioP2
75890;SDS011;64571;47.512;19.054;2023-04-03T00:00:01;11.40;;;4.72;;
75890;SDS011;64571;47.512;19.054;2023-04-03T00:03:07;7.78;;;3.42;;
75890;SDS011;64571;47.512;19.054;2023-04-03T00:06:10;8.68;;;3.87;;
75890;SDS011;64571;47.512;19.054;2023-04-03T00:09:13;7.05;;;3.15;;
75890;SDS011;64571;47.512;19.054;2023-04-03T00:12:16;8.47;;;4.40;;
75890;SDS011;64571;47.512;19.054;2023-04-03T00:15:19;8.07;;;3.92;;
75890;SDS011;64571;47.512;19.054;2023-04-03T00:18:21;9.60;;;4.25;;
75890;SDS011;64571;47.512;19.054;2023-04-03T00:21:24;10.40;;;4.68;;
75890;SDS011;64571;47.512;19.054;2023-04-03T00:24:27;8.43;;;4.07;;
75890;SDS011;64571;47.512;19.054;2023-04-03T00:27:29;8.77;;;4.17;;
75890;SDS011;64571;47.512;19.054;2023-04-03T00:30:32;9.40;;;4.20;;
75890;SDS011;64571;47.512;19.054;2023-04-03T00:33:35;8.60;;;3.75;;
75890;SDS011;64571;47.512;19.054;2023-04-03T00:36:37;8.38;;;3.92;;
75890;SDS011;64571;47.512;19.054;2023-04-03T00:39:40;9.48;;;3.67;;
75890;SDS011;64571;47.512;19.054;2023-04-03T00:42:43;7.80;;;3.83;;
75890;SDS011;64571;47.512;19.054;2023-04-03T00:45:49;8.20;;;4.12;;
75890;SDS011;64571;47.512;19.054;2023-04-03T00:48:54;7.25;;;2.97;;
75890;SDS011;64571;47.512;19.054;2023-04-03T00:51:56;8.43;;;4.22;;
75890;SDS011;64571;47.512;19.054;2023-04-03T00:55:02;8.05;;;3.85;;
75890;SDS011;64571;47.512;19.054;2023-04-03T00:58:07;8.90;;;3.80;;
75890;SDS011;64571;47.512;19.054;2023-04-03T01:01:12;7.18;;;3.10;;
75890;SDS011;64571;47.512;19.054;2023-04-03T01:04:33;6.93;;;2.90;;
75890;SDS011;64571;47.512;19.054;2023-04-03T01:07:39;8.00;;;3.65;;
75890;SDS011;64571;47.512;19.054;2023-04-03T01:10:42;8.40;;;4.20;;
75890;SDS011;64571;47.512;19.054;2023-04-03T01:13:46;8.80;;;3.47;;
75890;SDS011;64571;47.512;19.054;2023-04-03T01:16:54;7.55;;;3.58;;
75890;SDS011;64571;47.512;19.054;2023-04-03T01:23:27;8.50;;;3.72;;
75890;SDS011;64571;47.512;19.054;2023-04-03T01:26:33;7.85;;;3.45;;
75890;SDS011;64571;47.512;19.054;2023-04-03T01:29:36;6.97;;;3.20;;
75890;SDS011;64571;47.512;19.054;2023-04-03T01:32:39;7.07;;;3.08;;
75890;SDS011;64571;47.512;19.054;2023-04-03T01:35:42;6.55;;;2.95;;
75890;SDS011;64571;47.512;19.054;2023-04-03T01:38:44;7.70;;;3.30;;
75890;SDS011;64571;47.512;19.054;2023-04-03T01:41:47;7.55;;;3.42;;
75890;SDS011;64571;47.512;19.054;2023-04-03T01:44:51;8.77;;;3.83;;
75890;SDS011;64571;47.512;19.054;2023-04-03T01:47:53;7.43;;;3.42;;
75890;SDS011;64571;47.512;19.054;2023-04-03T01:50:58;7.55;;;3.72;;
75890;SDS011;64571;47.512;19.054;2023-04-03T01:54:01;7.32;;;3.30;;
75890;SDS011;64571;47.512;19.054;2023-04-03T01:57:03;10.70;;;3.97;;
75890;SDS011;64571;47.512;19.054;2023-04-03T02:00:07;7.03;;;3.43;;
75890;SDS011;64571;47.512;19.054;2023-04-03T02:03:13;6.82;;;3.20;;
75890;SDS011;64571;47.512;19.054;2023-04-03T02:06:17;7.45;;;3.58;;
75890;SDS011;64571;47.512;19.054;2023-04-03T02:09:19;6.82;;;3.20;;
75890;SDS011;64571;47.512;19.054;2023-04-03T02:12:22;7.35;;;3.25;;
75890;SDS011;64571;47.512;19.054;2023-04-03T02:15:24;6.70;;;2.80;;
75890;SDS011;64571;47.512;19.054;2023-04-03T02:18:27;7.20;;;2.75;;
75890;SDS011;64571;47.512;19.054;2023-04-03T02:21:30;7.78;;;3.00;;
75890;SDS011;64571;47.512;19.054;2023-04-03T02:24:32;7.07;;;2.70;;
75890;SDS011;64571;47.512;19.054;2023-04-03T02:27:35;8.30;;;3.05;;
75890;SDS011;64571;47.512;19.054;2023-04-03T02:30:37;6.77;;;2.90;;
75890;SDS011;64571;47.512;19.054;2023-04-03T02:33:40;8.23;;;3.10;;
75890;SDS011;64571;47.512;19.054;2023-04-03T02:36:43;5.95;;;2.90;;
75890;SDS011;64571;47.512;19.054;2023-04-03T02:39:47;7.07;;;2.85;;
75890;SDS011;64571;47.512;19.054;2023-04-03T02:42:50;6.20;;;2.80;;
75890;SDS011;64571;47.512;19.054;2023-04-03T02:45:53;6.63;;;2.90;;
75890;SDS011;64571;47.512;19.054;2023-04-03T02:48:55;7.85;;;3.30;;
75890;SDS011;64571;47.512;19.054;2023-04-03T02:51:58;7.00;;;3.25;;
75890;SDS011;64571;47.512;19.054;2023-04-03T02:55:01;6.60;;;2.70;;
75890;SDS011;64571;47.512;19.054;2023-04-03T02:58:04;7.12;;;3.25;;
75890;SDS011;64571;47.512;19.054;2023-04-03T03:01:08;6.80;;;2.53;;
75890;SDS011;64571;47.512;19.054;2023-04-03T03:04:11;6.07;;;2.45;;
75890;SDS011;64571;47.512;19.054;2023-04-03T03:07:14;6.30;;;2.90;;
75890;SDS011;64571;47.512;19.054;2023-04-03T03:10:16;7.15;;;2.72;;
75890;SDS011;64571;47.512;19.054;2023-04-03T03:13:20;7.80;;;2.60;;
75890;SDS011;64571;47.512;19.054;2023-04-03T03:16:22;7.43;;;3.30;;
75890;SDS011;64571;47.512;19.054;2023-04-03T03:19:25;8.63;;;2.97;;
75890;SDS011;64571;47.512;19.054;2023-04-03T03:22:27;7.00;;;2.92;;
75890;SDS011;64571;47.512;19.054;2023-04-03T03:25:33;7.05;;;3.00;;
75890;SDS011;64571;47.512;19.054;2023-04-03T03:28:36;7.30;;;3.20;;
75890;SDS011;64571;47.512;19.054;2023-04-03T03:31:39;5.97;;;2.87;;
75890;SDS011;64571;47.512;19.054;2023-04-03T03:34:42;7.40;;;3.40;;
75890;SDS011;64571;47.512;19.054;2023-04-03T03:37:45;8.15;;;3.30;;
75890;SDS011;64571;47.512;19.054;2023-04-03T03:40:48;7.15;;;2.92;;
75890;SDS011;64571;47.512;19.054;2023-04-03T03:43:52;10.57;;;3.03;;
75890;SDS011;64571;47.512;19.054;2023-04-03T03:46:54;6.30;;;1.97;;
75890;SDS011;64571;47.512;19.054;2023-04-03T03:49:58;6.68;;;2.70;;
75890;SDS011;64571;47.512;19.054;2023-04-03T03:53:01;7.10;;;2.90;;
75890;SDS011;64571;47.512;19.054;2023-04-03T03:56:04;7.60;;;3.25;;
75890;SDS011;64571;47.512;19.054;2023-04-03T03:59:07;7.60;;;3.42;;
75890;SDS011;64571;47.512;19.054;2023-04-03T04:02:10;8.57;;;3.67;;
75890;SDS011;64571;47.512;19.054;2023-04-03T04:05:13;7.57;;;3.22;;
75890;SDS011;64571;47.512;19.054;2023-04-03T04:08:16;7.40;;;3.45;;
75890;SDS011;64571;47.512;19.054;2023-04-03T04:11:19;7.53;;;3.47;;
75890;SDS011;64571;47.512;19.054;2023-04-03T04:14:24;10.60;;;4.35;;
75890;SDS011;64571;47.512;19.054;2023-04-03T04:17:28;7.93;;;3.40;;
75890;SDS011;64571;47.512;19.054;2023-04-03T04:20:32;6.68;;;3.05;;
75890;SDS011;64571;47.512;19.054;2023-04-03T04:23:35;7.28;;;3.75;;
75890;SDS011;64571;47.512;19.054;2023-04-03T04:26:38;6.45;;;3.00;;
75890;SDS011;64571;47.512;19.054;2023-04-03T04:29:41;8.32;;;3.37;;
75890;SDS011;64571;47.512;19.054;2023-04-03T04:32:44;7.17;;;3.17;;
75890;SDS011;64571;47.512;19.054;2023-04-03T04:35:47;8.70;;;3.83;;
75890;SDS011;64571;47.512;19.054;2023-04-03T04:38:51;6.53;;;2.95;;
75890;SDS011;64571;47.512;19.054;2023-04-03T04:41:55;8.60;;;3.95;;
75890;SDS011;64571;47.512;19.054;2023-04-03T04:44:58;8.75;;;3.28;;
75890;SDS011;64571;47.512;19.054;2023-04-03T04:48:01;9.27;;;3.17;;
75890;SDS011;64571;47.512;19.054;2023-04-03T04:51:03;8.35;;;3.00;;
75890;SDS011;64571;47.512;19.054;2023-04-03T04:54:07;7.35;;;3.28;;
75890;SDS011;64571;47.512;19.054;2023-04-03T04:57:10;10.13;;;3.20;;
75890;SDS011;64571;47.512;19.054;2023-04-03T05:00:14;6.80;;;2.85;;
75890;SDS011;64571;47.512;19.054;2023-04-03T05:03:17;7.80;;;3.40;;
75890;SDS011;64571;47.512;19.054;2023-04-03T05:06:20;7.55;;;3.17;;
75890;SDS011;64571;47.512;19.054;2023-04-03T05:09:23;7.85;;;3.47;;
75890;SDS011;64571;47.512;19.054;2023-04-03T05:12:26;10.25;;;2.95;;
75890;SDS011;64571;47.512;19.054;2023-04-03T05:15:29;8.20;;;3.35;;
75890;SDS011;64571;47.512;19.054;2023-04-03T05:18:33;7.23;;;3.13;;
75890;SDS011;64571;47.512;19.054;2023-04-03T05:21:36;6.93;;;2.90;;
75890;SDS011;64571;47.512;19.054;2023-04-03T05:24:39;8.10;;;3.70;;
75890;SDS011;64571;47.512;19.054;2023-04-03T05:27:42;9.68;;;3.65;;
75890;SDS011;64571;47.512;19.054;2023-04-03T05:30:45;7.37;;;3.05;;
75890;SDS011;64571;47.512;19.054;2023-04-03T05:33:48;7.40;;;3.40;;
75890;SDS011;64571;47.512;19.054;2023-04-03T05:36:51;7.45;;;2.97;;
75890;SDS011;64571;47.512;19.054;2023-04-03T05:39:54;7.50;;;2.87;;
75890;SDS011;64571;47.512;19.054;2023-04-03T05:42:57;7.12;;;2.45;;
75890;SDS011;64571;47.512;19.054;2023-04-03T05:46:00;6.90;;;2.97;;
75890;SDS011;64571;47.512;19.054;2023-04-03T05:49:03;9.00;;;3.73;;
75890;SDS011;64571;47.512;19.054;2023-04-03T05:52:11;7.22;;;2.70;;
75890;SDS011;64571;47.512;19.054;2023-04-03T05:55:22;8.35;;;3.37;;
75890;SDS011;64571;47.512;19.054;2023-04-03T05:58:25;9.88;;;3.62;;
75890;SDS011;64571;47.512;19.054;2023-04-03T06:01:28;9.77;;;4.05;;
75890;SDS011;64571;47.512;19.054;2023-04-03T06:04:31;6.83;;;2.77;;
75890;SDS011;64571;47.512;19.054;2023-04-03T06:07:33;6.57;;;3.00;;
75890;SDS011;64571;47.512;19.054;2023-04-03T06:10:36;11.55;;;3.60;;
75890;SDS011;64571;47.512;19.054;2023-04-03T06:13:40;8.80;;;3.42;;
75890;SDS011;64571;47.512;19.054;2023-04-03T06:16:42;6.95;;;2.85;;
75890;SDS011;64571;47.512;19.054;2023-04-03T06:19:45;7.93;;;3.07;;
75890;SDS011;64571;47.512;19.054;2023-04-03T06:22:49;6.57;;;2.87;;
75890;SDS011;64571;47.512;19.054;2023-04-03T06:25:52;16.08;;;3.17;;
75890;SDS011;64571;47.512;19.054;2023-04-03T06:28:55;7.68;;;3.33;;
75890;SDS011;64571;47.512;19.054;2023-04-03T06:31:58;6.75;;;2.72;;
75890;SDS011;64571;47.512;19.054;2023-04-03T06:35:00;11.03;;;4.77;;
75890;SDS011;64571;47.512;19.054;2023-04-03T06:38:03;7.90;;;3.20;;
75890;SDS011;64571;47.512;19.054;2023-04-03T06:41:11;7.12;;;3.25;;
75890;SDS011;64571;47.512;19.054;2023-04-03T06:44:13;6.28;;;2.80;;
75890;SDS011;64571;47.512;19.054;2023-04-03T06:47:18;6.10;;;2.58;;
75890;SDS011;64571;47.512;19.054;2023-04-03T06:50:20;8.97;;;3.60;;
75890;SDS011;64571;47.512;19.054;2023-04-03T06:53:23;7.25;;;2.92;;
75890;SDS011;64571;47.512;19.054;2023-04-03T06:56:26;10.02;;;3.87;;
75890;SDS011;64571;47.512;19.054;2023-04-03T06:59:29;8.23;;;3.28;;
75890;SDS011;64571;47.512;19.054;2023-04-03T07:02:32;8.38;;;2.90;;
75890;SDS011;64571;47.512;19.054;2023-04-03T07:05:35;7.20;;;3.30;;
75890;SDS011;64571;47.512;19.054;2023-04-03T07:08:38;5.37;;;2.33;;
75890;SDS011;64571;47.512;19.054;2023-04-03T07:11:41;5.20;;;1.60;;
75890;SDS011;64571;47.512;19.054;2023-04-03T07:14:44;7.10;;;2.20;;
75890;SDS011;64571;47.512;19.054;2023-04-03T07:17:46;5.57;;;1.90;;
75890;SDS011;64571;47.512;19.054;2023-04-03T07:20:49;5.10;;;2.20;;
75890;SDS011;64571;47.512;19.054;2023-04-03T07:23:52;4.78;;;1.80;;
75890;SDS011;64571;47.512;19.054;2023-04-03T07:26:54;6.62;;;2.55;;
75890;SDS011;64571;47.512;19.054;2023-04-03T07:29:57;8.25;;;2.85;;
75890;SDS011;64571;47.512;19.054;2023-04-03T07:33:00;10.27;;;2.60;;
75890;SDS011;64571;47.512;19.054;2023-04-03T07:36:03;6.20;;;2.03;;
75890;SDS011;64571;47.512;19.054;2023-04-03T07:39:09;16.98;;;7.60;;
75890;SDS011;64571;47.512;19.054;2023-04-03T07:42:14;6.68;;;2.22;;
75890;SDS011;64571;47.512;19.054;2023-04-03T07:45:16;5.28;;;1.95;;
75890;SDS011;64571;47.512;19.054;2023-04-03T07:48:20;5.00;;;2.05;;
75890;SDS011;64571;47.512;19.054;2023-04-03T07:51:24;4.93;;;2.23;;
75890;SDS011;64571;47.512;19.054;2023-04-03T07:54:28;5.18;;;2.00;;
75890;SDS011;64571;47.512;19.054;2023-04-03T07:57:31;7.55;;;2.67;;
75890;SDS011;64571;47.512;19.054;2023-04-03T08:00:33;5.10;;;2.05;;
75890;SDS011;64571;47.512;19.054;2023-04-03T08:03:36;6.85;;;2.60;;
75890;SDS011;64571;47.512;19.054;2023-04-03T08:06:41;7.47;;;2.20;;
75890;SDS011;64571;47.512;19.054;2023-04-03T08:09:48;6.62;;;2.60;;
75890;SDS011;64571;47.512;19.054;2023-04-03T08:12:51;6.62;;;2.20;;
75890;SDS011;64571;47.512;19.054;2023-04-03T08:15:53;5.25;;;2.17;;
75890;SDS011;64571;47.512;19.054;2023-04-03T08:18:56;7.47;;;2.40;;
75890;SDS011;64571;47.512;19.054;2023-04-03T08:21:59;8.17;;;2.13;;
75890;SDS011;64571;47.512;19.054;2023-04-03T08:25:02;6.18;;;2.60;;
75890;SDS011;64571;47.512;19.054;2023-04-03T08:28:05;6.60;;;2.60;;
75890;SDS011;64571;47.512;19.054;2023-04-03T08:31:10;7.53;;;2.30;;
75890;SDS011;64571;47.512;19.054;2023-04-03T08:34:16;6.70;;;2.60;;
75890;SDS011;64571;47.512;19.054;2023-04-03T08:37:18;4.30;;;1.60;;
75890;SDS011;64571;47.512;19.054;2023-04-03T08:40:22;4.82;;;1.83;;
75890;SDS011;64571;47.512;19.054;2023-04-03T08:43:30;4.53;;;1.80;;
75890;SDS011;64571;47.512;19.054;2023-04-03T08:50:29;6.55;;;1.67;;
75890;SDS011;64571;47.512;19.054;2023-04-03T08:53:35;4.63;;;1.60;;
75890;SDS011;64571;47.512;19.054;2023-04-03T08:56:41;4.68;;;1.62;;
75890;SDS011;64571;47.512;19.054;2023-04-03T08:59:44;6.97;;;1.60;;
75890;SDS011;64571;47.512;19.054;2023-04-03T09:02:50;5.60;;;2.00;;
75890;SDS011;64571;47.512;19.054;2023-04-03T09:09:21;5.87;;;2.00;;
75890;SDS011;64571;47.512;19.054;2023-04-03T09:12:44;4.20;;;1.48;;
75890;SDS011;64571;47.512;19.054;2023-04-03T09:15:57;5.47;;;1.90;;
75890;SDS011;64571;47.512;19.054;2023-04-03T09:19:22;4.57;;;1.70;;
75890;SDS011;64571;47.512;19.054;2023-04-03T09:22:41;5.32;;;1.60;;
75890;SDS011;64571;47.512;19.054;2023-04-03T09:25:53;4.03;;;1.50;;
75890;SDS011;64571;47.512;19.054;2023-04-03T09:29:07;4.43;;;1.70;;
75890;SDS011;64571;47.512;19.054;2023-04-03T09:32:30;4.97;;;2.05;;
75890;SDS011;64571;47.512;19.054;2023-04-03T09:35:36;4.32;;;1.58;;
75890;SDS011;64571;47.512;19.054;2023-04-03T09:39:02;4.28;;;1.70;;
75890;SDS011;64571;47.512;19.054;2023-04-03T09:42:13;4.57;;;2.00;;
75890;SDS011;64571;47.512;19.054;2023-04-03T09:45:33;5.65;;;2.22;;
75890;SDS011;64571;47.512;19.054;2023-04-03T09:48:37;5.50;;;1.80;;
75890;SDS011;64571;47.512;19.054;2023-04-03T09:51:39;5.35;;;1.50;;
75890;SDS011;64571;47.512;19.054;2023-04-03T09:54:42;5.32;;;1.92;;
75890;SDS011;64571;47.512;19.054;2023-04-03T09:57:45;4.43;;;1.60;;
75890;SDS011;64571;47.512;19.054;2023-04-03T10:00:53;4.45;;;1.55;;
75890;SDS011;64571;47.512;19.054;2023-04-03T10:07:30;5.03;;;1.33;;
75890;SDS011;64571;47.512;19.054;2023-04-03T10:10:38;4.65;;;1.48;;
75890;SDS011;64571;47.512;19.054;2023-04-03T10:13:52;5.37;;;1.80;;
75890;SDS011;64571;47.512;19.054;2023-04-03T10:20:26;4.72;;;1.62;;
75890;SDS011;64571;47.512;19.054;2023-04-03T10:23:46;4.60;;;1.67;;
75890;SDS011;64571;47.512;19.054;2023-04-03T10:36:53;4.15;;;1.23;;
75890;SDS011;64571;47.512;19.054;2023-04-03T10:39:59;4.10;;;1.40;;
75890;SDS011;64571;47.512;19.054;2023-04-03T10:46:40;6.50;;;2.00;;
75890;SDS011;64571;47.512;19.054;2023-04-03T10:53:21;4.62;;;1.75;;
75890;SDS011;64571;47.512;19.054;2023-04-03T10:56:42;4.70;;;1.33;;
75890;SDS011;64571;47.512;19.054;2023-04-03T11:00:03;5.32;;;1.75;;
75890;SDS011;64571;47.512;19.054;2023-04-03T11:10:37;4.25;;;1.50;;
75890;SDS011;64571;47.512;19.054;2023-04-03T11:17:14;4.05;;;1.20;;
75890;SDS011;64571;47.512;19.054;2023-04-03T11:23:36;12.10;;;2.12;;
75890;SDS011;64571;47.512;19.054;2023-04-03T11:26:50;6.53;;;1.45;;
75890;SDS011;64571;47.512;19.054;2023-04-03T11:29:55;12.18;;;1.92;;
75890;SDS011;64571;47.512;19.054;2023-04-03T11:39:35;5.53;;;1.52;;
75890;SDS011;64571;47.512;19.054;2023-04-03T11:42:41;6.40;;;1.25;;
75890;SDS011;64571;47.512;19.054;2023-04-03T11:46:02;5.50;;;1.33;;
75890;SDS011;64571;47.512;19.054;2023-04-03T11:49:08;4.45;;;1.20;;
75890;SDS011;64571;47.512;19.054;2023-04-03T11:55:53;3.70;;;1.10;;
75890;SDS011;64571;47.512;19.054;2023-04-03T12:02:33;3.42;;;1.20;;
75890;SDS011;64571;47.512;19.054;2023-04-03T12:09:23;3.93;;;1.40;;
75890;SDS011;64571;47.512;19.054;2023-04-03T12:12:38;3.50;;;1.08;;
75890;SDS011;64571;47.512;19.054;2023-04-03T12:15:50;4.43;;;1.17;;
75890;SDS011;64571;47.512;19.054;2023-04-03T12:18:56;3.58;;;1.00;;
75890;SDS011;64571;47.512;19.054;2023-04-03T12:25:01;4.50;;;1.20;;
75890;SDS011;64571;47.512;19.054;2023-04-03T12:28:42;3.70;;;1.20;;
75890;SDS011;64571;47.512;19.054;2023-04-03T12:31:49;4.10;;;1.25;;
75890;SDS011;64571;47.512;19.054;2023-04-03T12:35:28;3.65;;;1.02;;
75890;SDS011;64571;47.512;19.054;2023-04-03T12:42:20;4.07;;;1.10;;
75890;SDS011;64571;47.512;19.054;2023-04-03T12:48:50;6.45;;;1.42;;
75890;SDS011;64571;47.512;19.054;2023-04-03T12:51:57;4.57;;;1.17;;
75890;SDS011;64571;47.512;19.054;2023-04-03T12:55:00;5.75;;;1.20;;
75890;SDS011;64571;47.512;19.054;2023-04-03T13:01:25;6.55;;;2.05;;
75890;SDS011;64571;47.512;19.054;2023-04-03T13:04:29;4.00;;;1.12;;
75890;SDS011;64571;47.512;19.054;2023-04-03T13:07:34;4.45;;;1.10;;
75890;SDS011;64571;47.512;19.054;2023-04-03T13:14:20;9.10;;;2.67;;
75890;SDS011;64571;47.512;19.054;2023-04-03T13:17:25;5.80;;;2.05;;
75890;SDS011;64571;47.512;19.054;2023-04-03T13:20:30;4.82;;;1.55;;
75890;SDS011;64571;47.512;19.054;2023-04-03T13:23:38;5.47;;;1.60;;
75890;SDS011;64571;47.512;19.054;2023-04-03T13:26:43;4.47;;;1.00;;
75890;SDS011;64571;47.512;19.054;2023-04-03T13:29:49;4.20;;;1.60;;
75890;SDS011;64571;47.512;19.054;2023-04-03T13:32:57;3.90;;;1.50;;
75890;SDS011;64571;47.512;19.054;2023-04-03T13:36:17;3.70;;;1.15;;
75890;SDS011;64571;47.512;19.054;2023-04-03T13:39:33;4.18;;;1.30;;
75890;SDS011;64571;47.512;19.054;2023-04-03T13:42:40;4.68;;;1.37;;
75890;SDS011;64571;47.512;19.054;2023-04-03T13:45:57;4.30;;;1.60;;
75890;SDS011;64571;47.512;19.054;2023-04-03T13:52:23;4.40;;;1.50;;
75890;SDS011;64571;47.512;19.054;2023-04-03T13:55:33;4.50;;;1.23;;
75890;SDS011;64571;47.512;19.054;2023-04-03T13:58:37;6.45;;;2.53;;
75890;SDS011;64571;47.512;19.054;2023-04-03T14:01:45;3.57;;;1.07;;
75890;SDS011;64571;47.512;19.054;2023-04-03T14:04:52;4.20;;;1.40;;
75890;SDS011;64571;47.512;19.054;2023-04-03T14:08:00;5.40;;;1.60;;
75890;SDS011;64571;47.512;19.054;2023-04-03T14:11:04;4.87;;;1.55;;
75890;SDS011;64571;47.512;19.054;2023-04-03T14:14:18;5.40;;;1.60;;
75890;SDS011;64571;47.512;19.054;2023-04-03T14:17:24;4.47;;;1.60;;
75890;SDS011;64571;47.512;19.054;2023-04-03T14:20:28;4.68;;;1.40;;
75890;SDS011;64571;47.512;19.054;2023-04-03T14:23:31;7.00;;;1.42;;
75890;SDS011;64571;47.512;19.054;2023-04-03T14:26:34;4.35;;;1.20;;
75890;SDS011;64571;47.512;19.054;2023-04-03T14:29:37;4.35;;;1.50;;
75890;SDS011;64571;47.512;19.054;2023-04-03T14:32:39;4.40;;;1.50;;
75890;SDS011;64571;47.512;19.054;2023-04-03T14:35:42;4.25;;;1.60;;
75890;SDS011;64571;47.512;19.054;2023-04-03T14:38:45;4.10;;;1.40;;
75890;SDS011;64571;47.512;19.054;2023-04-03T14:41:49;3.62;;;1.10;;
75890;SDS011;64571;47.512;19.054;2023-04-03T14:44:51;4.28;;;1.45;;
75890;SDS011;64571;47.512;19.054;2023-04-03T14:47:55;4.17;;;1.50;;
75890;SDS011;64571;47.512;19.054;2023-04-03T14:50:58;4.57;;;1.55;;
75890;SDS011;64571;47.512;19.054;2023-04-03T14:54:13;4.55;;;1.33;;
75890;SDS011;64571;47.512;19.054;2023-04-03T14:57:18;4.05;;;1.33;;
75890;SDS011;64571;47.512;19.054;2023-04-03T15:00:21;4.47;;;1.55;;
75890;SDS011;64571;47.512;19.054;2023-04-03T15:03:24;5.07;;;1.40;;
75890;SDS011;64571;47.512;19.054;2023-04-03T15:06:27;9.50;;;1.52;;
75890;SDS011;64571;47.512;19.054;2023-04-03T15:09:37;4.47;;;1.42;;
75890;SDS011;64571;47.512;19.054;2023-04-03T15:12:40;4.28;;;1.48;;
75890;SDS011;64571;47.512;19.054;2023-04-03T15:15:43;6.00;;;1.52;;
75890;SDS011;64571;47.512;19.054;2023-04-03T15:18:46;5.10;;;1.90;;
75890;SDS011;64571;47.512;19.054;2023-04-03T15:21:49;5.85;;;2.80;;
75890;SDS011;64571;47.512;19.054;2023-04-03T15:24:53;5.60;;;2.30;;
75890;SDS011;64571;47.512;19.054;2023-04-03T15:27:55;5.82;;;2.08;;
75890;SDS011;64571;47.512;19.054;2023-04-03T15:30:59;6.40;;;2.50;;
75890;SDS011;64571;47.512;19.054;2023-04-03T15:34:02;10.57;;;3.77;;
75890;SDS011;64571;47.512;19.054;2023-04-03T15:37:05;7.55;;;2.87;;
75890;SDS011;64571;47.512;19.054;2023-04-03T15:40:07;5.07;;;1.73;;
75890;SDS011;64571;47.512;19.054;2023-04-03T15:43:11;10.68;;;1.95;;
75890;SDS011;64571;47.512;19.054;2023-04-03T15:46:14;5.15;;;1.73;;
75890;SDS011;64571;47.512;19.054;2023-04-03T15:49:18;8.53;;;2.20;;
75890;SDS011;64571;47.512;19.054;2023-04-03T15:52:21;6.35;;;2.03;;
75890;SDS011;64571;47.512;19.054;2023-04-03T15:55:25;5.97;;;2.20;;
75890;SDS011;64571;47.512;19.054;2023-04-03T15:58:28;6.65;;;2.25;;
75890;SDS011;64571;47.512;19.054;2023-04-03T16:01:31;4.65;;;1.62;;
75890;SDS011;64571;47.512;19.054;2023-04-03T16:04:37;7.47;;;2.23;;
75890;SDS011;64571;47.512;19.054;2023-04-03T16:07:40;6.80;;;2.00;;
75890;SDS011;64571;47.512;19.054;2023-04-03T16:10:43;5.22;;;1.87;;
75890;SDS011;64571;47.512;19.054;2023-04-03T16:13:47;5.57;;;1.90;;
75890;SDS011;64571;47.512;19.054;2023-04-03T16:16:50;5.43;;;2.15;;
75890;SDS011;64571;47.512;19.054;2023-04-03T16:19:53;5.20;;;2.00;;
75890;SDS011;64571;47.512;19.054;2023-04-03T16:22:58;6.37;;;1.95;;
75890;SDS011;64571;47.512;19.054;2023-04-03T16:26:02;4.68;;;1.50;;
75890;SDS011;64571;47.512;19.054;2023-04-03T16:29:05;5.20;;;1.77;;
75890;SDS011;64571;47.512;19.054;2023-04-03T16:32:07;7.12;;;1.60;;
75890;SDS011;64571;47.512;19.054;2023-04-03T16:35:10;5.10;;;1.53;;
75890;SDS011;64571;47.512;19.054;2023-04-03T16:38:14;4.93;;;1.70;;
75890;SDS011;64571;47.512;19.054;2023-04-03T16:41:17;4.50;;;1.55;;
75890;SDS011;64571;47.512;19.054;2023-04-03T16:44:20;4.90;;;1.58;;
75890;SDS011;64571;47.512;19.054;2023-04-03T16:47:22;6.47;;;2.00;;
75890;SDS011;64571;47.512;19.054;2023-04-03T16:50:25;5.70;;;1.80;;
75890;SDS011;64571;47.512;19.054;2023-04-03T16:53:27;5.12;;;1.87;;
75890;SDS011;64571;47.512;19.054;2023-04-03T16:56:30;6.05;;;2.15;;
75890;SDS011;64571;47.512;19.054;2023-04-03T16:59:34;6.43;;;2.25;;
75890;SDS011;64571;47.512;19.054;2023-04-03T17:02:36;5.57;;;2.00;;
75890;SDS011;64571;47.512;19.054;2023-04-03T17:05:39;8.97;;;2.13;;
75890;SDS011;64571;47.512;19.054;2023-04-03T17:08:42;5.90;;;2.28;;
75890;SDS011;64571;47.512;19.054;2023-04-03T17:12:00;7.32;;;2.35;;
75890;SDS011;64571;47.512;19.054;2023-04-03T17:15:03;5.55;;;2.12;;
75890;SDS011;64571;47.512;19.054;2023-04-03T17:18:06;4.95;;;1.90;;
75890;SDS011;64571;47.512;19.054;2023-04-03T17:21:09;5.63;;;1.90;;
75890;SDS011;64571;47.512;19.054;2023-04-03T17:24:11;5.82;;;2.15;;
75890;SDS011;64571;47.512;19.054;2023-04-03T17:27:15;5.95;;;2.25;;
75890;SDS011;64571;47.512;19.054;2023-04-03T17:30:18;7.10;;;1.83;;
75890;SDS011;64571;47.512;19.054;2023-04-03T17:33:20;6.05;;;1.87;;
75890;SDS011;64571;47.512;19.054;2023-04-03T17:36:23;6.03;;;2.30;;
75890;SDS011;64571;47.512;19.054;2023-04-03T17:39:25;5.75;;;1.90;;
75890;SDS011;64571;47.512;19.054;2023-04-03T17:42:30;5.95;;;2.22;;
75890;SDS011;64571;47.512;19.054;2023-04-03T17:45:33;7.22;;;1.95;;
75890;SDS011;64571;47.512;19.054;2023-04-03T17:48:37;5.40;;;2.17;;
75890;SDS011;64571;47.512;19.054;2023-04-03T17:51:42;5.43;;;2.03;;
75890;SDS011;64571;47.512;19.054;2023-04-03T17:54:44;5.97;;;2.12;;
75890;SDS011;64571;47.512;19.054;2023-04-03T17:57:47;4.90;;;2.10;;
75890;SDS011;64571;47.512;19.054;2023-04-03T18:00:50;7.68;;;1.70;;
75890;SDS011;64571;47.512;19.054;2023-04-03T18:03:54;5.53;;;2.05;;
75890;SDS011;64571;47.512;19.054;2023-04-03T18:06:58;7.07;;;2.10;;
75890;SDS011;64571;47.512;19.054;2023-04-03T18:10:00;5.40;;;2.40;;
75890;SDS011;64571;47.512;19.054;2023-04-03T18:13:06;6.00;;;2.33;;
75890;SDS011;64571;47.512;19.054;2023-04-03T18:16:09;6.05;;;2.28;;
75890;SDS011;64571;47.512;19.054;2023-04-03T18:19:13;5.60;;;2.15;;
75890;SDS011;64571;47.512;19.054;2023-04-03T18:22:24;6.10;;;2.20;;
75890;SDS011;64571;47.512;19.054;2023-04-03T18:25:27;5.15;;;2.00;;
75890;SDS011;64571;47.512;19.054;2023-04-03T18:28:37;7.20;;;1.87;;
75890;SDS011;64571;47.512;19.054;2023-04-03T18:31:45;5.03;;;1.87;;
75890;SDS011;64571;47.512;19.054;2023-04-03T18:34:51;5.53;;;2.40;;
75890;SDS011;64571;47.512;19.054;2023-04-03T18:37:53;11.47;;;2.40;;
75890;SDS011;64571;47.512;19.054;2023-04-03T18:40:56;5.60;;;1.95;;
75890;SDS011;64571;47.512;19.054;2023-04-03T18:43:59;6.87;;;2.30;;
75890;SDS011;64571;47.512;19.054;2023-04-03T18:47:04;5.35;;;2.00;;
75890;SDS011;64571;47.512;19.054;2023-04-03T18:50:08;5.35;;;2.10;;
75890;SDS011;64571;47.512;19.054;2023-04-03T18:53:11;5.93;;;1.83;;
75890;SDS011;64571;47.512;19.054;2023-04-03T18:56:14;6.85;;;2.62;;
75890;SDS011;64571;47.512;19.054;2023-04-03T18:59:19;6.37;;;2.15;;
75890;SDS011;64571;47.512;19.054;2023-04-03T19:02:22;6.75;;;2.40;;
75890;SDS011;64571;47.512;19.054;2023-04-03T19:05:27;6.03;;;2.83;;
75890;SDS011;64571;47.512;19.054;2023-04-03T19:08:29;6.33;;;2.40;;
75890;SDS011;64571;47.512;19.054;2023-04-03T19:11:33;7.78;;;2.35;;
75890;SDS011;64571;47.512;19.054;2023-04-03T19:14:36;4.97;;;1.83;;
75890;SDS011;64571;47.512;19.054;2023-04-03T19:17:38;6.40;;;2.37;;
75890;SDS011;64571;47.512;19.054;2023-04-03T19:20:41;6.00;;;1.92;;
75890;SDS011;64571;47.512;19.054;2023-04-03T19:23:43;5.80;;;2.10;;
75890;SDS011;64571;47.512;19.054;2023-04-03T19:26:46;8.45;;;2.30;;
75890;SDS011;64571;47.512;19.054;2023-04-03T19:29:48;6.00;;;2.62;;
75890;SDS011;64571;47.512;19.054;2023-04-03T19:32:51;5.72;;;2.00;;
75890;SDS011;64571;47.512;19.054;2023-04-03T19:35:54;5.90;;;2.08;;
75890;SDS011;64571;47.512;19.054;2023-04-03T19:38:57;7.67;;;2.40;;
75890;SDS011;64571;47.512;19.054;2023-04-03T19:42:00;7.62;;;2.30;;